createdAt,value
2022-07-31T00:01:40.379Z,93478.16
2022-07-31T00:16:41.926Z,93460.38
2022-07-31T00:31:43.573Z,93491.75
2022-07-31T00:46:45.511Z,93507.53
2022-07-31T01:01:47.663Z,93498.25
2022-07-31T01:16:51.699Z,93511.38
2022-07-31T01:32:10.981Z,93508.91
2022-07-31T01:47:14.292Z,93496.41
2022-07-31T02:02:16.345Z,93498.75
2022-07-31T02:17:19.252Z,93486.59
2022-07-31T02:32:25.853Z,93487.66
2022-07-31T02:47:28.254Z,93511.25
2022-07-31T03:02:36.841Z,93508.91
2022-07-31T03:17:41.032Z,93511.25
2022-07-31T03:32:43.606Z,93519.72
2022-07-31T03:47:45.287Z,93520.66
2022-07-31T04:02:47.101Z,93541.03
2022-07-31T04:17:48.828Z,93538.28
2022-07-31T04:32:50.448Z,93517.63
2022-07-31T04:47:51.985Z,93523.31
2022-07-31T05:02:53.515Z,93537.94
2022-07-31T05:17:55.140Z,93535.88
2022-07-31T05:32:58.683Z,93545.63
2022-07-31T05:48:00.301Z,93533.19
2022-07-31T06:03:02.655Z,93533.78
2022-07-31T06:18:04.310Z,93523.91
2022-07-31T06:33:08.530Z,93540.50
2022-07-31T06:48:13.900Z,93529.97
2022-07-31T07:03:15.612Z,93531.78
2022-07-31T07:18:17.215Z,93536.09
2022-07-31T07:33:39.782Z,93558.91
2022-07-31T07:48:40.346Z,93556.69
2022-07-31T08:03:48.460Z,93555.56
2022-07-31T08:18:54.507Z,93578.59
2022-07-31T08:33:56.422Z,93594.69
2022-07-31T08:48:58.370Z,93583.97
2022-07-31T09:04:00.341Z,93576.63
2022-07-31T09:19:03.559Z,93582.78
2022-07-31T09:34:30.926Z,93568.34
2022-07-31T09:49:33.249Z,93562.09
2022-07-31T10:04:37.449Z,93547.91
2022-07-31T10:19:41.376Z,93542.22
2022-07-31T10:34:43.654Z,93529.44
2022-07-31T10:49:46.471Z,93504.75
2022-07-31T11:04:48.090Z,93502.91
2022-07-31T11:19:49.649Z,93495.16
2022-07-31T11:34:54.052Z,93477.28
2022-07-31T11:50:03.002Z,93466.09
2022-07-31T12:05:04.799Z,93459.47
2022-07-31T12:20:07.369Z,93442.78
2022-07-31T12:35:09.018Z,93432.91
2022-07-31T12:50:10.723Z,93424.25
2022-07-31T13:05:12.408Z,93407.22
2022-07-31T13:20:14.618Z,93406.88
2022-07-31T13:35:27.773Z,93401.84
2022-07-31T13:50:30.287Z,93390.06
2022-07-31T14:05:37.326Z,93400.34
2022-07-31T14:20:42.258Z,93393.56
2022-07-31T14:35:43.843Z,93386.59
2022-07-31T14:50:45.636Z,93393.31
2022-07-31T15:06:37.666Z,93384.28
2022-07-31T15:21:12.538Z,93284.44
2022-07-31T15:36:15.380Z,93373.06
2022-07-31T15:51:16.953Z,93373.72
2022-07-31T16:06:18.574Z,93369.16
2022-07-31T16:21:20.121Z,93369.44
2022-07-31T16:36:22.209Z,93374.91
2022-07-31T16:51:23.833Z,93391.69
2022-07-31T17:06:36.388Z,93398.81
2022-07-31T17:21:38.753Z,93406.75
2022-07-31T17:36:48.958Z,93424.06
2022-07-31T17:51:58.759Z,93441.22
2022-07-31T18:07:03.623Z,93444.09
2022-07-31T18:22:05.530Z,93467.25
2022-07-31T18:37:07.343Z,93463.47
2022-07-31T18:52:09.503Z,93503.28
2022-07-31T19:07:11.505Z,93512.81
2022-07-31T19:22:14.000Z,93525.69
2022-07-31T19:37:15.748Z,93540.22
2022-07-31T19:52:17.418Z,93539.09
2022-07-31T20:07:19.158Z,93554.69
2022-07-31T20:22:20.799Z,93549.69
2022-07-31T20:37:22.346Z,93543.91
2022-07-31T20:52:23.906Z,93545.69
2022-07-31T21:07:25.447Z,93549.78
2022-07-31T21:22:27.080Z,93559.47
2022-07-31T21:37:40.182Z,93555.31
2022-07-31T21:52:41.873Z,93545.81
2022-07-31T22:16:08.916Z,93539.84
2022-07-31T22:31:10.565Z,93559.84
2022-07-31T22:46:12.617Z,93551.38
2022-07-31T23:01:14.194Z,93553.31
2022-07-31T23:16:15.786Z,93549.97
2022-07-31T23:31:17.621Z,93561.28
2022-07-31T23:46:19.150Z,93556.13
